createdAt,value
2023-02-27T00:03:04.690Z,2.17
2023-02-27T00:06:46.661Z,2.38
2023-02-27T00:10:28.613Z,2.08
2023-02-27T00:14:10.557Z,2.90
2023-02-27T00:17:52.609Z,2.83
2023-02-27T00:21:36.841Z,3.15
2023-02-27T00:25:19.319Z,2.60
2023-02-27T00:29:01.246Z,2.60
2023-02-27T00:32:44.079Z,3.28
2023-02-27T00:36:26.171Z,3.33
2023-02-27T00:40:09.197Z,2.40
2023-02-27T00:43:51.199Z,2.40
2023-02-27T00:47:34.062Z,1.90
2023-02-27T00:51:16.063Z,2.03
2023-02-27T00:54:58.040Z,2.80
2023-02-27T00:58:40.076Z,2.08
2023-02-27T01:02:22.300Z,2.27
2023-02-27T01:06:04.558Z,2.55
2023-02-27T01:09:47.197Z,2.70
2023-02-27T01:13:29.222Z,2.15
2023-02-27T01:17:11.664Z,2.13
2023-02-27T01:20:54.984Z,2.60
2023-02-27T01:24:36.982Z,2.80
2023-02-27T01:28:19.155Z,2.30
2023-02-27T01:32:01.382Z,2.38
2023-02-27T01:35:43.489Z,2.13
2023-02-27T01:39:26.556Z,2.53
2023-02-27T01:43:17.505Z,2.28
2023-02-27T01:46:59.666Z,2.30
2023-02-27T01:51:07.989Z,2.58
2023-02-27T01:54:50.093Z,2.60
2023-02-27T01:58:32.275Z,2.72
2023-02-27T02:02:27.284Z,2.80
2023-02-27T02:06:10.305Z,2.57
2023-02-27T02:09:56.806Z,2.67
2023-02-27T02:13:40.480Z,2.55
2023-02-27T02:17:48.184Z,2.77
2023-02-27T02:21:55.967Z,2.50
2023-02-27T02:25:59.642Z,2.50
2023-02-27T02:30:04.841Z,2.72
2023-02-27T02:34:11.520Z,2.33
2023-02-27T02:38:14.949Z,2.58
2023-02-27T02:42:14.051Z,2.53
2023-02-27T02:46:04.625Z,2.20
2023-02-27T02:49:55.934Z,2.60
2023-02-27T02:54:07.350Z,2.42
2023-02-27T02:57:52.445Z,2.30
2023-02-27T03:01:43.678Z,2.50
2023-02-27T03:05:32.991Z,2.47
2023-02-27T03:09:26.022Z,2.30
2023-02-27T03:13:19.901Z,2.53
2023-02-27T03:17:09.973Z,2.28
2023-02-27T03:20:59.942Z,2.50
2023-02-27T03:24:47.357Z,2.40
2023-02-27T03:28:32.714Z,2.70
2023-02-27T03:32:32.950Z,2.15
2023-02-27T03:36:44.414Z,2.20
2023-02-27T03:40:31.280Z,1.90
2023-02-27T03:44:19.100Z,2.60
2023-02-27T03:48:02.076Z,2.30
2023-02-27T03:51:44.495Z,2.70
2023-02-27T03:55:35.408Z,2.70
2023-02-27T03:59:17.602Z,2.33
2023-02-27T04:03:01.881Z,2.30
2023-02-27T04:07:13.010Z,2.45
2023-02-27T04:10:54.975Z,2.08
2023-02-27T04:14:41.096Z,2.27
2023-02-27T04:18:39.339Z,2.05
2023-02-27T04:22:30.564Z,2.08
2023-02-27T04:26:15.947Z,2.38
2023-02-27T04:30:24.100Z,2.40
2023-02-27T04:34:29.888Z,2.25
2023-02-27T04:38:26.382Z,1.92
2023-02-27T04:42:17.972Z,1.87
2023-02-27T04:46:01.857Z,2.25
2023-02-27T04:50:01.099Z,2.38
2023-02-27T04:53:52.333Z,2.40
2023-02-27T04:57:41.295Z,2.15
2023-02-27T05:01:56.816Z,1.77
2023-02-27T05:05:42.229Z,2.13
2023-02-27T05:09:37.574Z,2.07
2023-02-27T05:13:30.185Z,1.98
2023-02-27T05:17:18.348Z,2.42
2023-02-27T05:21:31.078Z,2.40
2023-02-27T05:25:27.207Z,2.03
2023-02-27T05:29:40.442Z,1.90
2023-02-27T05:33:33.420Z,2.17
2023-02-27T05:37:35.129Z,1.63
2023-02-27T05:41:25.603Z,2.00
2023-02-27T05:45:18.056Z,2.38
2023-02-27T05:49:06.105Z,2.63
2023-02-27T05:52:49.411Z,2.80
2023-02-27T05:56:35.094Z,2.28
2023-02-27T06:00:42.499Z,1.83
2023-02-27T06:04:24.552Z,2.03
2023-02-27T06:08:06.529Z,2.33
2023-02-27T06:11:48.529Z,2.10
2023-02-27T06:15:30.632Z,2.10
2023-02-27T06:19:12.966Z,2.38
2023-02-27T06:22:54.884Z,2.30
2023-02-27T06:26:36.960Z,2.23
2023-02-27T06:30:19.151Z,2.28
2023-02-27T06:34:01.175Z,2.40
2023-02-27T06:37:43.345Z,2.13
2023-02-27T06:41:25.319Z,2.50
2023-02-27T06:45:08.612Z,2.13
2023-02-27T06:48:50.656Z,2.40
2023-02-27T06:52:33.536Z,2.13
2023-02-27T06:56:15.765Z,2.40
2023-02-27T06:59:57.798Z,2.33
2023-02-27T07:03:39.773Z,2.37
2023-02-27T07:07:35.108Z,2.28
2023-02-27T07:11:19.326Z,2.13
2023-02-27T07:19:05.664Z,2.67
2023-02-27T07:22:48.738Z,2.63
2023-02-27T07:26:41.953Z,2.92
2023-02-27T07:30:23.977Z,3.20
2023-02-27T07:38:06.295Z,3.33
2023-02-27T07:41:48.448Z,3.50
2023-02-27T07:45:51.336Z,2.83
2023-02-27T07:49:33.308Z,3.40
2023-02-27T07:57:15.608Z,3.90
2023-02-27T08:00:57.959Z,3.20
2023-02-27T08:05:13.362Z,4.03
2023-02-27T08:08:55.458Z,4.63
2023-02-27T08:12:51.755Z,3.83
2023-02-27T08:16:34.026Z,4.78
2023-02-27T08:24:25.737Z,4.47
2023-02-27T08:28:07.982Z,3.88
2023-02-27T08:32:10.717Z,4.53
2023-02-27T08:35:54.652Z,3.80
2023-02-27T08:40:05.529Z,4.63
2023-02-27T08:43:49.705Z,4.60
2023-02-27T08:48:17.938Z,4.25
2023-02-27T08:52:28.763Z,4.17
2023-02-27T08:56:11.043Z,4.47
2023-02-27T09:03:57.767Z,5.57
2023-02-27T09:08:04.862Z,5.65
2023-02-27T09:11:47.275Z,5.43
2023-02-27T09:19:37.571Z,4.97
2023-02-27T09:23:20.092Z,5.15
2023-02-27T09:27:09.334Z,5.78
2023-02-27T09:30:51.316Z,5.70
2023-02-27T09:34:33.352Z,5.70
2023-02-27T09:38:47.912Z,5.60
2023-02-27T09:46:40.195Z,4.68
2023-02-27T09:54:37.031Z,5.63
2023-02-27T09:58:55.888Z,6.00
2023-02-27T10:07:04.351Z,6.53
2023-02-27T10:15:10.282Z,5.95
2023-02-27T10:19:17.341Z,3.90
2023-02-27T10:27:22.613Z,8.40
2023-02-27T10:35:22.216Z,7.93
2023-02-27T10:39:49.372Z,7.40
2023-02-27T10:47:39.042Z,6.70
2023-02-27T10:55:36.124Z,5.40
2023-02-27T10:59:59.757Z,4.28
2023-02-27T11:21:31.618Z,3.33
2023-02-27T11:25:29.309Z,3.60
2023-02-27T11:29:26.437Z,3.30
2023-02-27T11:34:31.814Z,2.83
2023-02-27T11:38:23.513Z,3.10
2023-02-27T11:42:57.576Z,2.28
2023-02-27T11:46:50.956Z,3.13
2023-02-27T11:51:23.091Z,2.92
2023-02-27T11:55:56.107Z,3.00
2023-02-27T12:00:26.893Z,2.50
2023-02-27T12:04:19.308Z,2.78
2023-02-27T12:13:57.189Z,2.38
2023-02-27T12:22:26.606Z,2.73
2023-02-27T12:26:44.070Z,2.55
2023-02-27T12:31:14.390Z,1.80
2023-02-27T12:35:46.162Z,2.13
2023-02-27T12:39:48.159Z,1.73
2023-02-27T12:43:49.506Z,1.95
2023-02-27T12:48:09.281Z,1.17
2023-02-27T12:56:41.407Z,1.73
2023-02-27T13:00:39.950Z,1.70
2023-02-27T13:14:05.055Z,1.17
2023-02-27T13:54:47.395Z,1.33
2023-02-27T14:03:10.743Z,1.20
2023-02-27T14:20:36.493Z,1.17
2023-02-27T14:29:06.188Z,1.50
2023-02-27T14:55:38.094Z,0.93
2023-02-27T15:04:08.732Z,1.20
2023-02-27T15:13:05.961Z,1.30
2023-02-27T15:22:05.255Z,1.10
2023-02-27T15:26:35.327Z,1.13
2023-02-27T15:35:34.149Z,1.30
2023-02-27T15:44:35.047Z,1.48
2023-02-27T15:53:37.811Z,1.15
2023-02-27T16:29:40.703Z,2.00
2023-02-27T16:38:39.104Z,1.92
2023-02-27T17:00:10.565Z,1.40
2023-02-27T17:22:37.269Z,1.50
2023-02-27T17:36:06.603Z,1.90
2023-02-27T17:39:52.608Z,2.80
2023-02-27T17:43:35.010Z,3.03
2023-02-27T17:47:17.081Z,2.50
2023-02-27T17:51:11.573Z,1.90
2023-02-27T17:54:53.932Z,2.08
2023-02-27T17:58:36.588Z,2.42
2023-02-27T18:02:19.546Z,1.83
2023-02-27T18:06:02.405Z,2.60
2023-02-27T18:09:45.868Z,2.10
2023-02-27T18:13:28.614Z,2.13
2023-02-27T18:17:12.703Z,2.55
2023-02-27T18:21:08.192Z,2.40
2023-02-27T18:24:54.145Z,3.07
2023-02-27T18:28:36.262Z,2.58
2023-02-27T18:32:18.477Z,2.53
2023-02-27T18:36:00.473Z,2.60
2023-02-27T18:39:44.311Z,2.37
2023-02-27T18:43:27.073Z,2.78
2023-02-27T18:47:09.857Z,2.33
2023-02-27T18:50:52.228Z,2.10
2023-02-27T18:54:34.277Z,3.10
2023-02-27T18:58:16.382Z,2.90
2023-02-27T19:01:58.484Z,2.30
2023-02-27T19:05:41.677Z,2.35
2023-02-27T19:09:23.825Z,1.90
2023-02-27T19:13:05.906Z,2.10
2023-02-27T19:16:49.903Z,1.50
2023-02-27T19:20:32.011Z,1.30
2023-02-27T19:24:16.775Z,1.20
2023-02-27T19:28:00.509Z,1.30
2023-02-27T19:31:44.336Z,0.88
2023-02-27T19:35:27.059Z,0.90
2023-02-27T19:39:10.310Z,1.00
2023-02-27T19:42:52.439Z,0.90
2023-02-27T19:46:35.143Z,1.00
2023-02-27T19:50:17.767Z,1.20
2023-02-27T19:54:00.152Z,0.77
2023-02-27T19:57:42.630Z,0.95
2023-02-27T20:01:33.234Z,0.65
2023-02-27T20:05:15.251Z,1.20
2023-02-27T20:08:58.882Z,1.02
2023-02-27T20:12:40.986Z,1.08
2023-02-27T20:16:24.172Z,1.40
2023-02-27T20:20:07.018Z,1.27
2023-02-27T20:23:51.698Z,1.08
2023-02-27T20:27:34.832Z,1.27
2023-02-27T20:31:19.145Z,1.33
2023-02-27T20:35:01.246Z,1.75
2023-02-27T20:38:43.341Z,1.80
2023-02-27T20:42:26.001Z,1.90
2023-02-27T20:46:11.629Z,1.92
2023-02-27T20:49:53.605Z,1.52
2023-02-27T20:53:38.276Z,2.10
2023-02-27T20:57:20.189Z,2.10
2023-02-27T21:01:05.393Z,2.00
2023-02-27T21:04:49.509Z,1.75
2023-02-27T21:08:31.634Z,1.53
2023-02-27T21:12:14.385Z,2.00
2023-02-27T21:15:59.575Z,1.80
2023-02-27T21:19:41.716Z,1.50
2023-02-27T21:23:23.776Z,1.77
2023-02-27T21:27:05.970Z,1.95
2023-02-27T21:30:47.990Z,1.70
2023-02-27T21:38:25.923Z,2.08
2023-02-27T21:42:07.948Z,1.70
2023-02-27T21:45:51.806Z,1.70
2023-02-27T21:49:34.146Z,2.40
2023-02-27T21:53:16.265Z,1.95
2023-02-27T21:57:01.897Z,2.10
2023-02-27T22:00:43.849Z,2.05
2023-02-27T22:04:25.903Z,1.63
2023-02-27T22:08:08.102Z,2.23
2023-02-27T22:11:50.391Z,1.88
2023-02-27T22:15:32.357Z,1.90
2023-02-27T22:19:20.134Z,1.88
2023-02-27T22:23:04.815Z,1.47
2023-02-27T22:26:47.948Z,2.28
2023-02-27T22:30:30.534Z,1.80
2023-02-27T22:34:18.189Z,2.00
2023-02-27T22:38:02.818Z,2.35
2023-02-27T22:41:46.213Z,2.70
2023-02-27T22:45:28.217Z,2.93
2023-02-27T22:49:16.979Z,2.65
2023-02-27T22:52:58.956Z,2.17
2023-02-27T22:56:42.480Z,1.67
2023-02-27T23:00:24.491Z,1.80
2023-02-27T23:04:08.878Z,1.95
2023-02-27T23:07:50.902Z,2.85
2023-02-27T23:11:33.284Z,3.00
2023-02-27T23:15:15.345Z,2.78
2023-02-27T23:18:59.021Z,3.03
2023-02-27T23:22:40.978Z,2.57
2023-02-27T23:26:23.548Z,3.30
2023-02-27T23:30:06.308Z,3.60
2023-02-27T23:33:48.356Z,3.28
2023-02-27T23:37:30.365Z,2.77
2023-02-27T23:41:16.801Z,2.78
2023-02-27T23:45:07.485Z,2.60
2023-02-27T23:48:49.531Z,3.40
2023-02-27T23:52:31.492Z,2.83
2023-02-27T23:56:18.015Z,3.03
